Página principal
METAR-TAF:

METAR-TAF

Aeroportos :

Hillsdale Municipal Airport

Hillsdale, Michigan, Estados Unidos

latitude: 41-55-17N, longitude: 084-35-09W, altura: 360 m

Observação actual do tempo

O boletim foi feito há 20 minutos, às 20:55 UTC
Vento calmo
Temperatura 32°C
Humidade 32%
Pressão 1012 hPa
Visibilidade: 16.1 km
Céu limpo

METAR: KJYM 272055Z AUTO 00000KT 10SM CLR 32/13 A2989 RMK AO2

Hora: 17:15 (21:15 UTC)


TAF: em falta

Observações e previsões do tempo de mais de 4000 aeroportos (mensagens METAR e TAF).

As estações disponíveis são os pontos amarelos e vermelhos sobre o mapa.

Mova o rato sobre o mapa para ver o nome da estação.

Depois clique no ponto para visualizar as observações e previsões meteorológicas.

Para alterar o mapa : clique nos botões verdes com uma cruz preta para aumentar o zoom; no botão verde com uma pitada de zoom; ou nas setas verdes para mapas adjacentes.


METAR-TAF: